sensor_id;sensor_type;location;lat;lon;timestamp;P1;durP1;ratioP1;P2;durP2;ratioP2
13481;SDS011;6813;60.352;15.746;2023-02-15T00:01:51;2.33;;;1.83;;
13481;SDS011;6813;60.352;15.746;2023-02-15T00:04:18;2.43;;;1.80;;
13481;SDS011;6813;60.352;15.746;2023-02-15T00:06:46;1.47;;;1.30;;
13481;SDS011;6813;60.352;15.746;2023-02-15T00:09:12;2.20;;;2.00;;
13481;SDS011;6813;60.352;15.746;2023-02-15T00:11:38;2.87;;;2.30;;
13481;SDS011;6813;60.352;15.746;2023-02-15T00:14:08;3.17;;;2.37;;
13481;SDS011;6813;60.352;15.746;2023-02-15T00:16:36;2.50;;;2.30;;
13481;SDS011;6813;60.352;15.746;2023-02-15T00:19:03;2.47;;;2.10;;
13481;SDS011;6813;60.352;15.746;2023-02-15T00:21:30;3.10;;;2.40;;
13481;SDS011;6813;60.352;15.746;2023-02-15T00:23:57;2.10;;;1.87;;
13481;SDS011;6813;60.352;15.746;2023-02-15T00:26:24;2.57;;;2.27;;
13481;SDS011;6813;60.352;15.746;2023-02-15T00:28:50;2.73;;;2.33;;
13481;SDS011;6813;60.352;15.746;2023-02-15T00:31:16;2.50;;;2.23;;
13481;SDS011;6813;60.352;15.746;2023-02-15T00:33:42;3.40;;;2.67;;
13481;SDS011;6813;60.352;15.746;2023-02-15T00:36:08;2.77;;;2.00;;
13481;SDS011;6813;60.352;15.746;2023-02-15T00:38:35;4.50;;;2.93;;
13481;SDS011;6813;60.352;15.746;2023-02-15T00:41:03;3.90;;;3.00;;
13481;SDS011;6813;60.352;15.746;2023-02-15T00:43:30;3.60;;;2.80;;
13481;SDS011;6813;60.352;15.746;2023-02-15T00:45:57;4.93;;;3.23;;
13481;SDS011;6813;60.352;15.746;2023-02-15T00:48:23;2.97;;;2.67;;
13481;SDS011;6813;60.352;15.746;2023-02-15T00:50:49;3.10;;;2.80;;
13481;SDS011;6813;60.352;15.746;2023-02-15T00:53:20;3.30;;;2.47;;
13481;SDS011;6813;60.352;15.746;2023-02-15T00:55:47;4.83;;;3.10;;
13481;SDS011;6813;60.352;15.746;2023-02-15T00:58:13;3.97;;;2.73;;
13481;SDS011;6813;60.352;15.746;2023-02-15T01:00:42;4.43;;;3.53;;
13481;SDS011;6813;60.352;15.746;2023-02-15T01:03:10;3.30;;;3.00;;
13481;SDS011;6813;60.352;15.746;2023-02-15T01:05:37;3.37;;;2.87;;
13481;SDS011;6813;60.352;15.746;2023-02-15T01:08:03;3.73;;;2.90;;
13481;SDS011;6813;60.352;15.746;2023-02-15T01:10:29;2.83;;;2.00;;
13481;SDS011;6813;60.352;15.746;2023-02-15T01:12:55;4.00;;;3.43;;
13481;SDS011;6813;60.352;15.746;2023-02-15T01:15:21;5.13;;;3.47;;
13481;SDS011;6813;60.352;15.746;2023-02-15T01:17:47;6.27;;;3.60;;
13481;SDS011;6813;60.352;15.746;2023-02-15T01:20:21;3.93;;;3.50;;
13481;SDS011;6813;60.352;15.746;2023-02-15T01:22:48;4.03;;;3.20;;
13481;SDS011;6813;60.352;15.746;2023-02-15T01:25:15;4.97;;;3.50;;
13481;SDS011;6813;60.352;15.746;2023-02-15T01:27:45;4.33;;;3.93;;
13481;SDS011;6813;60.352;15.746;2023-02-15T01:30:11;3.77;;;2.70;;
13481;SDS011;6813;60.352;15.746;2023-02-15T01:32:37;5.30;;;3.63;;
13481;SDS011;6813;60.352;15.746;2023-02-15T01:35:03;4.70;;;3.87;;
13481;SDS011;6813;60.352;15.746;2023-02-15T01:37:33;4.67;;;3.70;;
13481;SDS011;6813;60.352;15.746;2023-02-15T01:39:59;4.60;;;4.00;;
13481;SDS011;6813;60.352;15.746;2023-02-15T01:42:27;4.20;;;3.77;;
13481;SDS011;6813;60.352;15.746;2023-02-15T01:44:54;5.00;;;3.90;;
13481;SDS011;6813;60.352;15.746;2023-02-15T01:47:23;5.60;;;3.70;;
13481;SDS011;6813;60.352;15.746;2023-02-15T01:52:38;5.57;;;4.13;;
13481;SDS011;6813;60.352;15.746;2023-02-15T01:55:17;5.03;;;3.90;;
13481;SDS011;6813;60.352;15.746;2023-02-15T01:57:44;4.77;;;2.93;;
13481;SDS011;6813;60.352;15.746;2023-02-15T02:00:12;4.77;;;3.80;;
13481;SDS011;6813;60.352;15.746;2023-02-15T02:02:39;4.27;;;3.47;;
13481;SDS011;6813;60.352;15.746;2023-02-15T02:05:07;4.40;;;3.60;;
13481;SDS011;6813;60.352;15.746;2023-02-15T02:07:43;4.50;;;2.60;;
13481;SDS011;6813;60.352;15.746;2023-02-15T02:10:12;8.33;;;4.17;;
13481;SDS011;6813;60.352;15.746;2023-02-15T02:12:39;3.90;;;2.97;;
13481;SDS011;6813;60.352;15.746;2023-02-15T02:15:09;8.47;;;4.30;;
13481;SDS011;6813;60.352;15.746;2023-02-15T02:36:24;7.07;;;4.77;;
13481;SDS011;6813;60.352;15.746;2023-02-15T02:39:14;3.97;;;3.13;;
13481;SDS011;6813;60.352;15.746;2023-02-15T02:41:53;6.87;;;4.77;;
13481;SDS011;6813;60.352;15.746;2023-02-15T02:44:31;6.50;;;4.60;;
13481;SDS011;6813;60.352;15.746;2023-02-15T02:50:02;6.47;;;4.57;;
13481;SDS011;6813;60.352;15.746;2023-02-15T02:52:52;7.50;;;5.10;;
13481;SDS011;6813;60.352;15.746;2023-02-15T02:57:49;7.87;;;5.10;;
13481;SDS011;6813;60.352;15.746;2023-02-15T03:00:18;7.10;;;4.83;;
13481;SDS011;6813;60.352;15.746;2023-02-15T03:02:45;8.97;;;5.60;;
13481;SDS011;6813;60.352;15.746;2023-02-15T03:05:16;6.87;;;5.00;;
13481;SDS011;6813;60.352;15.746;2023-02-15T03:07:46;8.43;;;5.63;;
13481;SDS011;6813;60.352;15.746;2023-02-15T03:10:16;8.27;;;5.13;;
13481;SDS011;6813;60.352;15.746;2023-02-15T03:12:45;8.90;;;5.10;;
13481;SDS011;6813;60.352;15.746;2023-02-15T03:15:15;4.90;;;4.10;;
13481;SDS011;6813;60.352;15.746;2023-02-15T03:17:48;7.80;;;5.20;;
13481;SDS011;6813;60.352;15.746;2023-02-15T03:20:30;10.20;;;5.63;;
13481;SDS011;6813;60.352;15.746;2023-02-15T03:25:33;7.93;;;5.30;;
13481;SDS011;6813;60.352;15.746;2023-02-15T03:28:03;6.00;;;5.17;;
13481;SDS011;6813;60.352;15.746;2023-02-15T03:30:35;9.53;;;5.70;;
13481;SDS011;6813;60.352;15.746;2023-02-15T03:33:02;10.93;;;5.90;;
13481;SDS011;6813;60.352;15.746;2023-02-15T03:35:33;7.37;;;5.77;;
13481;SDS011;6813;60.352;15.746;2023-02-15T03:38:09;5.77;;;4.57;;
13481;SDS011;6813;60.352;15.746;2023-02-15T03:40:40;9.60;;;6.60;;
13481;SDS011;6813;60.352;15.746;2023-02-15T03:43:30;9.40;;;6.57;;
13481;SDS011;6813;60.352;15.746;2023-02-15T03:47:19;8.80;;;6.40;;
13481;SDS011;6813;60.352;15.746;2023-02-15T03:49:26;9.70;;;5.63;;
13481;SDS011;6813;60.352;15.746;2023-02-15T03:52:14;7.57;;;5.80;;
13481;SDS011;6813;60.352;15.746;2023-02-15T03:54:41;8.97;;;6.27;;
13481;SDS011;6813;60.352;15.746;2023-02-15T03:57:27;9.13;;;6.53;;
13481;SDS011;6813;60.352;15.746;2023-02-15T04:05:26;8.50;;;6.30;;
13481;SDS011;6813;60.352;15.746;2023-02-15T04:07:52;7.83;;;6.70;;
13481;SDS011;6813;60.352;15.746;2023-02-15T04:10:17;6.80;;;5.00;;
13481;SDS011;6813;60.352;15.746;2023-02-15T04:13:02;8.70;;;6.43;;
13481;SDS011;6813;60.352;15.746;2023-02-15T04:15:27;7.77;;;5.93;;
13481;SDS011;6813;60.352;15.746;2023-02-15T04:18:12;8.00;;;6.40;;
13481;SDS011;6813;60.352;15.746;2023-02-15T04:20:38;10.87;;;6.80;;
13481;SDS011;6813;60.352;15.746;2023-02-15T04:23:22;10.23;;;6.40;;
13481;SDS011;6813;60.352;15.746;2023-02-15T04:26:06;9.67;;;6.93;;
13481;SDS011;6813;60.352;15.746;2023-02-15T04:28:31;7.30;;;4.87;;
13481;SDS011;6813;60.352;15.746;2023-02-15T04:30:57;6.07;;;4.57;;
13481;SDS011;6813;60.352;15.746;2023-02-15T04:33:23;10.83;;;6.60;;
13481;SDS011;6813;60.352;15.746;2023-02-15T04:35:48;8.63;;;6.23;;
13481;SDS011;6813;60.352;15.746;2023-02-15T04:38:14;10.30;;;6.83;;
13481;SDS011;6813;60.352;15.746;2023-02-15T04:40:40;10.97;;;7.57;;
13481;SDS011;6813;60.352;15.746;2023-02-15T04:43:05;8.77;;;5.70;;
13481;SDS011;6813;60.352;15.746;2023-02-15T04:45:31;9.43;;;7.20;;
13481;SDS011;6813;60.352;15.746;2023-02-15T04:47:57;10.30;;;7.60;;
13481;SDS011;6813;60.352;15.746;2023-02-15T04:50:23;9.43;;;7.73;;
13481;SDS011;6813;60.352;15.746;2023-02-15T04:52:48;10.17;;;7.37;;
13481;SDS011;6813;60.352;15.746;2023-02-15T04:55:14;6.67;;;4.70;;
13481;SDS011;6813;60.352;15.746;2023-02-15T04:57:40;10.13;;;7.30;;
13481;SDS011;6813;60.352;15.746;2023-02-15T05:00:06;8.43;;;5.80;;
13481;SDS011;6813;60.352;15.746;2023-02-15T05:02:33;8.30;;;6.07;;
13481;SDS011;6813;60.352;15.746;2023-02-15T05:04:59;7.27;;;5.57;;
13481;SDS011;6813;60.352;15.746;2023-02-15T05:07:25;8.97;;;6.70;;
13481;SDS011;6813;60.352;15.746;2023-02-15T05:09:50;7.47;;;5.67;;
13481;SDS011;6813;60.352;15.746;2023-02-15T05:12:16;12.00;;;7.40;;
13481;SDS011;6813;60.352;15.746;2023-02-15T05:14:41;7.90;;;6.13;;
13481;SDS011;6813;60.352;15.746;2023-02-15T05:17:07;8.27;;;6.27;;
13481;SDS011;6813;60.352;15.746;2023-02-15T05:19:33;10.77;;;7.40;;
13481;SDS011;6813;60.352;15.746;2023-02-15T05:21:58;9.93;;;6.57;;
13481;SDS011;6813;60.352;15.746;2023-02-15T05:24:24;8.43;;;6.23;;
13481;SDS011;6813;60.352;15.746;2023-02-15T05:27:11;9.93;;;6.67;;
13481;SDS011;6813;60.352;15.746;2023-02-15T05:29:56;6.97;;;4.60;;
13481;SDS011;6813;60.352;15.746;2023-02-15T05:32:22;9.77;;;7.27;;
13481;SDS011;6813;60.352;15.746;2023-02-15T05:34:47;9.67;;;6.33;;
13481;SDS011;6813;60.352;15.746;2023-02-15T05:37:13;9.23;;;6.17;;
13481;SDS011;6813;60.352;15.746;2023-02-15T05:39:39;8.87;;;6.37;;
13481;SDS011;6813;60.352;15.746;2023-02-15T05:42:05;9.50;;;6.63;;
13481;SDS011;6813;60.352;15.746;2023-02-15T05:44:31;11.37;;;6.93;;
13481;SDS011;6813;60.352;15.746;2023-02-15T05:46:56;11.17;;;7.10;;
13481;SDS011;6813;60.352;15.746;2023-02-15T05:49:22;10.20;;;6.83;;
13481;SDS011;6813;60.352;15.746;2023-02-15T05:51:48;10.53;;;7.07;;
13481;SDS011;6813;60.352;15.746;2023-02-15T05:54:14;16.67;;;9.90;;
13481;SDS011;6813;60.352;15.746;2023-02-15T05:56:39;10.20;;;6.70;;
13481;SDS011;6813;60.352;15.746;2023-02-15T05:59:05;11.10;;;7.20;;
13481;SDS011;6813;60.352;15.746;2023-02-15T06:01:31;7.77;;;5.20;;
13481;SDS011;6813;60.352;15.746;2023-02-15T06:03:56;9.60;;;7.03;;
13481;SDS011;6813;60.352;15.746;2023-02-15T06:06:22;10.70;;;6.37;;
13481;SDS011;6813;60.352;15.746;2023-02-15T06:08:48;11.63;;;7.93;;
13481;SDS011;6813;60.352;15.746;2023-02-15T06:11:13;10.07;;;7.20;;
13481;SDS011;6813;60.352;15.746;2023-02-15T06:13:39;11.00;;;7.23;;
13481;SDS011;6813;60.352;15.746;2023-02-15T06:16:05;10.53;;;7.10;;
13481;SDS011;6813;60.352;15.746;2023-02-15T06:18:31;15.00;;;8.00;;
13481;SDS011;6813;60.352;15.746;2023-02-15T06:20:57;13.17;;;8.60;;
13481;SDS011;6813;60.352;15.746;2023-02-15T06:23:23;13.53;;;8.50;;
13481;SDS011;6813;60.352;15.746;2023-02-15T06:25:48;11.53;;;6.97;;
13481;SDS011;6813;60.352;15.746;2023-02-15T06:28:14;10.90;;;7.63;;
13481;SDS011;6813;60.352;15.746;2023-02-15T06:30:40;8.93;;;6.20;;
13481;SDS011;6813;60.352;15.746;2023-02-15T06:33:05;11.67;;;8.07;;
13481;SDS011;6813;60.352;15.746;2023-02-15T06:35:31;12.90;;;8.10;;
13481;SDS011;6813;60.352;15.746;2023-02-15T06:37:57;10.77;;;7.33;;
13481;SDS011;6813;60.352;15.746;2023-02-15T06:40:22;11.17;;;7.97;;
13481;SDS011;6813;60.352;15.746;2023-02-15T06:42:48;12.63;;;8.73;;
13481;SDS011;6813;60.352;15.746;2023-02-15T06:45:14;11.87;;;7.33;;
13481;SDS011;6813;60.352;15.746;2023-02-15T06:47:39;14.60;;;8.03;;
13481;SDS011;6813;60.352;15.746;2023-02-15T06:50:06;9.67;;;6.97;;
13481;SDS011;6813;60.352;15.746;2023-02-15T06:52:32;11.93;;;8.13;;
13481;SDS011;6813;60.352;15.746;2023-02-15T06:54:58;11.07;;;7.47;;
13481;SDS011;6813;60.352;15.746;2023-02-15T06:57:24;12.90;;;7.93;;
13481;SDS011;6813;60.352;15.746;2023-02-15T06:59:50;9.33;;;6.17;;
13481;SDS011;6813;60.352;15.746;2023-02-15T07:02:17;13.40;;;8.00;;
13481;SDS011;6813;60.352;15.746;2023-02-15T07:04:42;11.60;;;8.10;;
13481;SDS011;6813;60.352;15.746;2023-02-15T07:07:08;12.07;;;7.93;;
13481;SDS011;6813;60.352;15.746;2023-02-15T07:09:35;9.90;;;7.03;;
13481;SDS011;6813;60.352;15.746;2023-02-15T07:12:01;11.03;;;6.77;;
13481;SDS011;6813;60.352;15.746;2023-02-15T07:14:46;11.43;;;7.27;;
13481;SDS011;6813;60.352;15.746;2023-02-15T07:17:11;11.83;;;7.77;;
13481;SDS011;6813;60.352;15.746;2023-02-15T07:19:37;10.80;;;6.93;;
13481;SDS011;6813;60.352;15.746;2023-02-15T07:22:03;8.90;;;6.93;;
13481;SDS011;6813;60.352;15.746;2023-02-15T07:24:30;9.03;;;6.03;;
13481;SDS011;6813;60.352;15.746;2023-02-15T07:26:56;11.10;;;6.70;;
13481;SDS011;6813;60.352;15.746;2023-02-15T07:29:22;9.27;;;6.40;;
13481;SDS011;6813;60.352;15.746;2023-02-15T07:31:48;11.33;;;7.40;;
13481;SDS011;6813;60.352;15.746;2023-02-15T07:34:14;9.27;;;6.47;;
13481;SDS011;6813;60.352;15.746;2023-02-15T07:36:40;10.93;;;7.63;;
13481;SDS011;6813;60.352;15.746;2023-02-15T07:39:09;9.93;;;5.60;;
13481;SDS011;6813;60.352;15.746;2023-02-15T07:41:34;10.93;;;7.53;;
13481;SDS011;6813;60.352;15.746;2023-02-15T07:44:00;9.83;;;6.63;;
13481;SDS011;6813;60.352;15.746;2023-02-15T07:46:26;10.00;;;6.50;;
13481;SDS011;6813;60.352;15.746;2023-02-15T07:48:52;11.47;;;7.77;;
13481;SDS011;6813;60.352;15.746;2023-02-15T07:51:18;11.67;;;8.13;;
13481;SDS011;6813;60.352;15.746;2023-02-15T07:53:44;10.23;;;6.97;;
13481;SDS011;6813;60.352;15.746;2023-02-15T07:56:12;10.37;;;6.50;;
13481;SDS011;6813;60.352;15.746;2023-02-15T07:58:39;8.60;;;6.33;;
13481;SDS011;6813;60.352;15.746;2023-02-15T08:01:17;10.83;;;6.53;;
13481;SDS011;6813;60.352;15.746;2023-02-15T08:03:45;10.73;;;6.83;;
13481;SDS011;6813;60.352;15.746;2023-02-15T08:06:11;9.27;;;6.27;;
13481;SDS011;6813;60.352;15.746;2023-02-15T08:08:38;10.80;;;6.90;;
13481;SDS011;6813;60.352;15.746;2023-02-15T08:13:54;10.23;;;7.17;;
13481;SDS011;6813;60.352;15.746;2023-02-15T08:16:34;10.17;;;7.17;;
13481;SDS011;6813;60.352;15.746;2023-02-15T08:19:18;7.67;;;6.00;;
13481;SDS011;6813;60.352;15.746;2023-02-15T08:21:49;9.30;;;6.97;;
13481;SDS011;6813;60.352;15.746;2023-02-15T08:24:17;12.43;;;7.03;;
13481;SDS011;6813;60.352;15.746;2023-02-15T08:26:44;10.20;;;6.70;;
13481;SDS011;6813;60.352;15.746;2023-02-15T08:29:12;9.47;;;6.77;;
13481;SDS011;6813;60.352;15.746;2023-02-15T08:31:38;9.90;;;6.37;;
13481;SDS011;6813;60.352;15.746;2023-02-15T08:34:06;11.00;;;6.27;;
13481;SDS011;6813;60.352;15.746;2023-02-15T08:36:33;10.77;;;7.57;;
13481;SDS011;6813;60.352;15.746;2023-02-15T08:38:59;10.90;;;7.57;;
13481;SDS011;6813;60.352;15.746;2023-02-15T08:41:34;12.80;;;7.80;;
13481;SDS011;6813;60.352;15.746;2023-02-15T08:44:01;12.57;;;8.47;;
13481;SDS011;6813;60.352;15.746;2023-02-15T08:46:31;12.03;;;8.47;;
13481;SDS011;6813;60.352;15.746;2023-02-15T08:48:58;11.60;;;7.73;;
13481;SDS011;6813;60.352;15.746;2023-02-15T08:51:28;12.03;;;8.20;;
13481;SDS011;6813;60.352;15.746;2023-02-15T08:53:56;14.90;;;8.20;;
13481;SDS011;6813;60.352;15.746;2023-02-15T08:56:24;12.20;;;8.60;;
13481;SDS011;6813;60.352;15.746;2023-02-15T08:58:56;12.90;;;8.00;;
13481;SDS011;6813;60.352;15.746;2023-02-15T09:01:23;12.20;;;7.43;;
13481;SDS011;6813;60.352;15.746;2023-02-15T09:03:51;13.10;;;7.13;;
13481;SDS011;6813;60.352;15.746;2023-02-15T09:06:21;15.13;;;8.37;;
13481;SDS011;6813;60.352;15.746;2023-02-15T09:08:47;15.83;;;8.50;;
13481;SDS011;6813;60.352;15.746;2023-02-15T09:11:24;13.70;;;9.03;;
13481;SDS011;6813;60.352;15.746;2023-02-15T09:13:52;11.23;;;7.20;;
13481;SDS011;6813;60.352;15.746;2023-02-15T09:16:26;13.57;;;8.07;;
13481;SDS011;6813;60.352;15.746;2023-02-15T09:18:54;14.23;;;9.27;;
13481;SDS011;6813;60.352;15.746;2023-02-15T09:21:23;13.53;;;8.77;;
13481;SDS011;6813;60.352;15.746;2023-02-15T09:23:51;15.53;;;8.60;;
13481;SDS011;6813;60.352;15.746;2023-02-15T09:26:20;17.20;;;9.37;;
13481;SDS011;6813;60.352;15.746;2023-02-15T09:28:47;14.80;;;8.77;;
13481;SDS011;6813;60.352;15.746;2023-02-15T09:31:20;10.80;;;7.23;;
13481;SDS011;6813;60.352;15.746;2023-02-15T09:33:48;12.37;;;8.93;;
13481;SDS011;6813;60.352;15.746;2023-02-15T09:38:47;12.23;;;8.13;;
13481;SDS011;6813;60.352;15.746;2023-02-15T09:55:18;15.03;;;8.60;;
13481;SDS011;6813;60.352;15.746;2023-02-15T10:00:47;15.97;;;8.50;;
13481;SDS011;6813;60.352;15.746;2023-02-15T10:20:34;14.83;;;8.73;;
13481;SDS011;6813;60.352;15.746;2023-02-15T10:31:55;14.17;;;7.67;;
13481;SDS011;6813;60.352;15.746;2023-02-15T10:34:39;13.47;;;8.17;;
13481;SDS011;6813;60.352;15.746;2023-02-15T10:51:08;10.90;;;7.13;;
13481;SDS011;6813;60.352;15.746;2023-02-15T10:56:44;11.77;;;7.53;;
13481;SDS011;6813;60.352;15.746;2023-02-15T11:05:24;11.20;;;7.03;;
13481;SDS011;6813;60.352;15.746;2023-02-15T11:07:58;12.73;;;6.80;;
13481;SDS011;6813;60.352;15.746;2023-02-15T11:10:39;15.83;;;8.47;;
13481;SDS011;6813;60.352;15.746;2023-02-15T11:13:09;13.70;;;7.47;;
13481;SDS011;6813;60.352;15.746;2023-02-15T11:23:42;11.73;;;6.77;;
13481;SDS011;6813;60.352;15.746;2023-02-15T11:29:21;11.00;;;6.57;;
13481;SDS011;6813;60.352;15.746;2023-02-15T11:32:22;12.20;;;6.27;;
13481;SDS011;6813;60.352;15.746;2023-02-15T11:34:53;10.20;;;5.90;;
13481;SDS011;6813;60.352;15.746;2023-02-15T11:37:31;10.10;;;6.47;;
13481;SDS011;6813;60.352;15.746;2023-02-15T11:46:03;10.10;;;6.50;;
13481;SDS011;6813;60.352;15.746;2023-02-15T11:48:29;9.67;;;6.60;;
13481;SDS011;6813;60.352;15.746;2023-02-15T11:50:57;11.87;;;6.73;;
13481;SDS011;6813;60.352;15.746;2023-02-15T11:53:23;12.03;;;6.90;;
13481;SDS011;6813;60.352;15.746;2023-02-15T11:55:52;12.30;;;6.63;;
13481;SDS011;6813;60.352;15.746;2023-02-15T12:03:51;10.90;;;7.20;;
13481;SDS011;6813;60.352;15.746;2023-02-15T12:06:27;10.40;;;7.03;;
13481;SDS011;6813;60.352;15.746;2023-02-15T12:09:18;12.00;;;7.03;;
13481;SDS011;6813;60.352;15.746;2023-02-15T12:14:48;13.37;;;7.70;;
13481;SDS011;6813;60.352;15.746;2023-02-15T12:17:15;13.07;;;7.67;;
13481;SDS011;6813;60.352;15.746;2023-02-15T12:19:41;12.83;;;7.90;;
13481;SDS011;6813;60.352;15.746;2023-02-15T12:22:17;11.63;;;7.60;;
13481;SDS011;6813;60.352;15.746;2023-02-15T12:24:56;11.67;;;8.17;;
13481;SDS011;6813;60.352;15.746;2023-02-15T12:27:26;13.23;;;8.77;;
13481;SDS011;6813;60.352;15.746;2023-02-15T12:30:00;15.07;;;8.97;;
13481;SDS011;6813;60.352;15.746;2023-02-15T12:32:36;13.87;;;8.60;;
13481;SDS011;6813;60.352;15.746;2023-02-15T12:35:27;14.83;;;9.73;;
13481;SDS011;6813;60.352;15.746;2023-02-15T12:37:57;15.83;;;9.57;;
13481;SDS011;6813;60.352;15.746;2023-02-15T12:40:36;17.10;;;9.83;;
13481;SDS011;6813;60.352;15.746;2023-02-15T12:43:03;15.47;;;9.90;;
13481;SDS011;6813;60.352;15.746;2023-02-15T12:45:33;11.20;;;8.40;;
13481;SDS011;6813;60.352;15.746;2023-02-15T12:48:22;18.10;;;10.67;;
13481;SDS011;6813;60.352;15.746;2023-02-15T12:50:47;15.47;;;9.77;;
13481;SDS011;6813;60.352;15.746;2023-02-15T12:53:18;15.97;;;9.90;;
13481;SDS011;6813;60.352;15.746;2023-02-15T12:55:54;18.47;;;11.27;;
13481;SDS011;6813;60.352;15.746;2023-02-15T12:58:22;15.90;;;9.80;;
13481;SDS011;6813;60.352;15.746;2023-02-15T13:03:34;18.40;;;10.67;;
13481;SDS011;6813;60.352;15.746;2023-02-15T13:06:02;15.10;;;10.17;;
13481;SDS011;6813;60.352;15.746;2023-02-15T13:08:37;14.97;;;9.90;;
13481;SDS011;6813;60.352;15.746;2023-02-15T13:11:10;15.13;;;9.53;;
13481;SDS011;6813;60.352;15.746;2023-02-15T13:14:00;16.80;;;11.53;;
13481;SDS011;6813;60.352;15.746;2023-02-15T13:19:09;19.73;;;11.53;;
13481;SDS011;6813;60.352;15.746;2023-02-15T13:21:38;19.00;;;11.57;;
13481;SDS011;6813;60.352;15.746;2023-02-15T13:24:06;16.60;;;10.50;;
13481;SDS011;6813;60.352;15.746;2023-02-15T13:26:43;20.07;;;11.13;;
13481;SDS011;6813;60.352;15.746;2023-02-15T13:29:29;17.77;;;10.40;;
13481;SDS011;6813;60.352;15.746;2023-02-15T13:32:00;20.87;;;12.53;;
13481;SDS011;6813;60.352;15.746;2023-02-15T13:34:36;18.57;;;11.63;;
13481;SDS011;6813;60.352;15.746;2023-02-15T13:39:54;22.63;;;12.57;;
13481;SDS011;6813;60.352;15.746;2023-02-15T13:42:38;17.37;;;11.37;;
13481;SDS011;6813;60.352;15.746;2023-02-15T13:53:17;14.10;;;8.53;;
13481;SDS011;6813;60.352;15.746;2023-02-15T14:09:27;19.33;;;11.80;;
13481;SDS011;6813;60.352;15.746;2023-02-15T14:12:20;23.20;;;13.30;;
13481;SDS011;6813;60.352;15.746;2023-02-15T14:15:13;21.00;;;12.90;;
13481;SDS011;6813;60.352;15.746;2023-02-15T14:17:49;19.53;;;12.63;;
13481;SDS011;6813;60.352;15.746;2023-02-15T14:20:43;22.87;;;14.17;;
13481;SDS011;6813;60.352;15.746;2023-02-15T14:25:42;20.00;;;12.67;;
13481;SDS011;6813;60.352;15.746;2023-02-15T14:28:27;21.90;;;11.07;;
13481;SDS011;6813;60.352;15.746;2023-02-15T14:31:34;18.93;;;11.80;;
13481;SDS011;6813;60.352;15.746;2023-02-15T14:34:04;22.93;;;13.40;;
13481;SDS011;6813;60.352;15.746;2023-02-15T14:36:31;20.57;;;13.57;;
13481;SDS011;6813;60.352;15.746;2023-02-15T14:42:25;21.07;;;11.70;;
13481;SDS011;6813;60.352;15.746;2023-02-15T14:45:02;21.80;;;13.47;;
13481;SDS011;6813;60.352;15.746;2023-02-15T14:47:32;17.97;;;11.13;;
13481;SDS011;6813;60.352;15.746;2023-02-15T15:01:25;16.70;;;10.47;;
13481;SDS011;6813;60.352;15.746;2023-02-15T15:03:59;19.73;;;12.03;;
13481;SDS011;6813;60.352;15.746;2023-02-15T15:06:36;19.93;;;11.33;;
13481;SDS011;6813;60.352;15.746;2023-02-15T15:09:37;16.23;;;10.27;;
13481;SDS011;6813;60.352;15.746;2023-02-15T15:14:45;17.97;;;10.20;;
13481;SDS011;6813;60.352;15.746;2023-02-15T15:20:02;21.20;;;13.00;;
13481;SDS011;6813;60.352;15.746;2023-02-15T15:22:39;15.27;;;10.53;;
13481;SDS011;6813;60.352;15.746;2023-02-15T15:27:57;17.20;;;10.53;;
13481;SDS011;6813;60.352;15.746;2023-02-15T15:32:54;19.40;;;12.50;;
13481;SDS011;6813;60.352;15.746;2023-02-15T15:49:07;22.37;;;12.67;;
13481;SDS011;6813;60.352;15.746;2023-02-15T15:51:37;20.50;;;13.27;;
13481;SDS011;6813;60.352;15.746;2023-02-15T15:54:05;26.13;;;15.77;;
13481;SDS011;6813;60.352;15.746;2023-02-15T15:56:34;22.37;;;13.77;;
13481;SDS011;6813;60.352;15.746;2023-02-15T15:59:02;19.10;;;11.47;;
13481;SDS011;6813;60.352;15.746;2023-02-15T16:01:35;19.63;;;10.87;;
13481;SDS011;6813;60.352;15.746;2023-02-15T16:04:05;18.43;;;11.00;;
13481;SDS011;6813;60.352;15.746;2023-02-15T16:06:36;20.00;;;13.07;;
13481;SDS011;6813;60.352;15.746;2023-02-15T16:11:52;19.63;;;12.00;;
13481;SDS011;6813;60.352;15.746;2023-02-15T16:14:28;20.70;;;12.03;;
13481;SDS011;6813;60.352;15.746;2023-02-15T16:17:03;17.17;;;11.10;;
13481;SDS011;6813;60.352;15.746;2023-02-15T16:19:38;15.67;;;9.70;;
13481;SDS011;6813;60.352;15.746;2023-02-15T16:22:08;21.37;;;12.33;;
13481;SDS011;6813;60.352;15.746;2023-02-15T16:24:38;19.13;;;12.17;;
13481;SDS011;6813;60.352;15.746;2023-02-15T16:27:53;18.40;;;13.10;;
13481;SDS011;6813;60.352;15.746;2023-02-15T16:30:23;20.70;;;12.67;;
13481;SDS011;6813;60.352;15.746;2023-02-15T16:33:07;18.07;;;11.57;;
13481;SDS011;6813;60.352;15.746;2023-02-15T16:35:39;17.77;;;10.70;;
13481;SDS011;6813;60.352;15.746;2023-02-15T16:41:29;17.33;;;11.03;;
13481;SDS011;6813;60.352;15.746;2023-02-15T16:43:58;21.10;;;12.80;;
13481;SDS011;6813;60.352;15.746;2023-02-15T16:46:31;14.80;;;8.93;;
13481;SDS011;6813;60.352;15.746;2023-02-15T16:48:57;20.50;;;11.83;;
13481;SDS011;6813;60.352;15.746;2023-02-15T16:51:27;18.20;;;11.20;;
13481;SDS011;6813;60.352;15.746;2023-02-15T16:53:56;21.03;;;11.53;;
13481;SDS011;6813;60.352;15.746;2023-02-15T16:56:27;20.77;;;11.83;;
13481;SDS011;6813;60.352;15.746;2023-02-15T16:58:58;19.57;;;12.10;;
13481;SDS011;6813;60.352;15.746;2023-02-15T17:01:29;17.67;;;12.37;;
13481;SDS011;6813;60.352;15.746;2023-02-15T17:04:11;17.73;;;10.83;;
13481;SDS011;6813;60.352;15.746;2023-02-15T17:06:38;15.50;;;10.17;;
13481;SDS011;6813;60.352;15.746;2023-02-15T17:09:13;14.17;;;9.27;;
13481;SDS011;6813;60.352;15.746;2023-02-15T17:11:44;20.53;;;10.50;;
13481;SDS011;6813;60.352;15.746;2023-02-15T17:14:11;15.77;;;10.07;;
13481;SDS011;6813;60.352;15.746;2023-02-15T17:16:43;16.63;;;9.27;;
13481;SDS011;6813;60.352;15.746;2023-02-15T17:19:15;16.80;;;9.33;;
13481;SDS011;6813;60.352;15.746;2023-02-15T17:21:51;17.53;;;11.27;;
13481;SDS011;6813;60.352;15.746;2023-02-15T17:24:22;23.70;;;12.73;;
13481;SDS011;6813;60.352;15.746;2023-02-15T17:26:50;19.13;;;10.93;;
13481;SDS011;6813;60.352;15.746;2023-02-15T17:31:53;15.33;;;10.37;;
13481;SDS011;6813;60.352;15.746;2023-02-15T17:37:10;16.07;;;9.67;;
13481;SDS011;6813;60.352;15.746;2023-02-15T17:39:37;17.70;;;11.20;;
13481;SDS011;6813;60.352;15.746;2023-02-15T17:42:03;13.77;;;7.93;;
13481;SDS011;6813;60.352;15.746;2023-02-15T17:44:28;16.00;;;10.33;;
13481;SDS011;6813;60.352;15.746;2023-02-15T17:46:54;14.30;;;8.97;;
13481;SDS011;6813;60.352;15.746;2023-02-15T17:49:24;17.20;;;10.43;;
13481;SDS011;6813;60.352;15.746;2023-02-15T17:52:00;18.80;;;11.93;;
13481;SDS011;6813;60.352;15.746;2023-02-15T17:54:26;15.23;;;9.63;;
13481;SDS011;6813;60.352;15.746;2023-02-15T17:57:12;17.10;;;12.43;;
13481;SDS011;6813;60.352;15.746;2023-02-15T17:59:39;11.73;;;7.90;;
13481;SDS011;6813;60.352;15.746;2023-02-15T18:02:24;16.00;;;10.97;;
13481;SDS011;6813;60.352;15.746;2023-02-15T18:05:14;17.40;;;9.73;;
13481;SDS011;6813;60.352;15.746;2023-02-15T18:07:59;16.90;;;9.43;;
13481;SDS011;6813;60.352;15.746;2023-02-15T18:10:43;14.27;;;9.37;;
13481;SDS011;6813;60.352;15.746;2023-02-15T18:13:27;14.00;;;8.93;;
13481;SDS011;6813;60.352;15.746;2023-02-15T18:15:53;21.43;;;12.07;;
13481;SDS011;6813;60.352;15.746;2023-02-15T18:18:21;18.47;;;10.73;;
13481;SDS011;6813;60.352;15.746;2023-02-15T18:20:48;16.53;;;9.40;;
13481;SDS011;6813;60.352;15.746;2023-02-15T18:23:14;16.57;;;10.30;;
13481;SDS011;6813;60.352;15.746;2023-02-15T18:25:40;17.87;;;10.67;;
13481;SDS011;6813;60.352;15.746;2023-02-15T18:28:07;16.57;;;10.07;;
13481;SDS011;6813;60.352;15.746;2023-02-15T18:30:36;14.67;;;9.43;;
13481;SDS011;6813;60.352;15.746;2023-02-15T18:33:14;15.40;;;9.93;;